createdAt,value
2022-09-26T00:00:34.031Z,98.10
2022-09-26T00:01:34.127Z,97.79
2022-09-26T00:02:34.131Z,97.69
2022-09-26T00:03:34.023Z,97.28
2022-09-26T00:04:33.987Z,96.97
2022-09-26T00:05:34.142Z,96.87
2022-09-26T00:06:33.953Z,96.97
2022-09-26T00:07:33.964Z,97.08
2022-09-26T00:08:33.949Z,97.17
2022-09-26T00:09:33.920Z,97.28
2022-09-26T00:10:33.919Z,97.38
2022-09-26T00:11:33.919Z,97.49
2022-09-26T00:12:33.874Z,97.79
2022-09-26T00:13:33.914Z,97.99
2022-09-26T00:14:33.887Z,97.89
2022-09-26T00:15:33.858Z,97.79
2022-09-26T00:16:33.885Z,97.69
2022-09-26T00:17:33.812Z,97.58
2022-09-26T00:18:33.820Z,97.49
2022-09-26T00:19:33.789Z,97.38
2022-09-26T00:20:33.794Z,96.97
2022-09-26T00:21:33.763Z,96.87
2022-09-26T00:22:33.736Z,96.77
2022-09-26T00:23:33.734Z,96.67
2022-09-26T00:24:33.720Z,96.83
2022-09-26T00:25:33.727Z,96.92
2022-09-26T00:26:33.711Z,96.72
2022-09-26T00:27:33.680Z,96.72
2022-09-26T00:28:33.653Z,96.92
2022-09-26T00:29:33.653Z,96.83
2022-09-26T00:30:33.696Z,96.92
2022-09-26T00:31:33.625Z,96.72
2022-09-26T00:32:33.678Z,96.51
2022-09-26T00:33:33.617Z,96.31
2022-09-26T00:34:33.599Z,96.11
2022-09-26T00:35:33.570Z,96.11
2022-09-26T00:36:38.101Z,96.11
2022-09-26T00:37:33.561Z,96.42
2022-09-26T00:38:33.552Z,96.51
2022-09-26T00:39:33.524Z,96.62
2022-09-26T00:40:33.534Z,96.92
2022-09-26T00:41:33.527Z,96.83
2022-09-26T00:42:33.466Z,96.92
2022-09-26T00:43:33.464Z,96.92
2022-09-26T00:44:33.450Z,96.92
2022-09-26T00:45:33.486Z,96.92
2022-09-26T00:46:33.500Z,96.72
2022-09-26T00:47:33.424Z,96.62
2022-09-26T00:48:33.390Z,96.83
2022-09-26T00:49:33.390Z,97.03
2022-09-26T00:50:33.364Z,97.13
2022-09-26T00:51:33.385Z,97.13
2022-09-26T00:52:33.372Z,97.13
2022-09-26T00:53:33.329Z,96.83
2022-09-26T00:54:33.313Z,96.83
2022-09-26T00:55:33.302Z,96.83
2022-09-26T00:56:33.285Z,96.83
2022-09-26T00:57:33.299Z,96.51
2022-09-26T00:58:33.258Z,96.31
2022-09-26T00:59:33.284Z,96.51
2022-09-26T01:00:34.209Z,96.42
2022-09-26T01:01:33.411Z,96.51
2022-09-26T01:02:33.337Z,96.51
2022-09-26T01:03:33.221Z,96.62
2022-09-26T01:04:33.184Z,96.72
2022-09-26T01:05:33.164Z,96.87
2022-09-26T01:06:33.158Z,96.77
2022-09-26T01:07:33.171Z,96.77
2022-09-26T01:08:33.136Z,96.77
2022-09-26T01:09:33.116Z,96.87
2022-09-26T01:10:33.129Z,97.08
2022-09-26T01:11:33.091Z,96.77
2022-09-26T01:12:33.067Z,96.56
2022-09-26T01:13:33.055Z,96.56
2022-09-26T01:14:33.070Z,96.51
2022-09-26T01:15:33.114Z,96.83
2022-09-26T01:16:33.081Z,96.92
2022-09-26T01:17:33.016Z,96.83
2022-09-26T01:18:32.992Z,96.72
2022-09-26T01:19:32.986Z,96.51
2022-09-26T01:20:33.006Z,96.31
2022-09-26T01:21:33.037Z,96.21
2022-09-26T01:22:32.936Z,96.36
2022-09-26T01:23:32.924Z,96.36
2022-09-26T01:24:32.908Z,96.46
2022-09-26T01:25:32.926Z,96.67
2022-09-26T01:26:32.887Z,96.67
2022-09-26T01:27:32.885Z,96.56
2022-09-26T01:28:32.865Z,96.56
2022-09-26T01:29:32.849Z,96.56
2022-09-26T01:30:32.921Z,96.56
2022-09-26T01:31:32.824Z,96.77
2022-09-26T01:32:32.826Z,96.87
2022-09-26T01:33:32.797Z,96.97
2022-09-26T01:34:32.785Z,96.67
2022-09-26T01:35:32.818Z,96.56
2022-09-26T01:36:32.754Z,96.46
2022-09-26T01:37:32.737Z,96.42
2022-09-26T01:38:32.805Z,96.51
2022-09-26T01:39:32.724Z,96.67
2022-09-26T01:40:32.770Z,96.51
2022-09-26T01:41:32.691Z,96.31
2022-09-26T01:42:32.675Z,96.31
2022-09-26T01:43:32.688Z,96.62
2022-09-26T01:44:32.665Z,96.83
2022-09-26T01:45:32.701Z,96.83
2022-09-26T01:46:32.636Z,96.83
2022-09-26T01:47:32.606Z,96.83
2022-09-26T01:48:32.625Z,96.72
2022-09-26T01:49:32.620Z,96.51
2022-09-26T01:50:32.562Z,96.31
2022-09-26T01:51:32.587Z,96.31
2022-09-26T01:52:32.539Z,96.26
2022-09-26T01:53:32.525Z,96.36
2022-09-26T01:54:32.514Z,96.36
2022-09-26T01:55:32.528Z,96.36
2022-09-26T01:56:32.515Z,96.36
2022-09-26T01:57:32.478Z,96.46
2022-09-26T01:58:32.443Z,96.46
2022-09-26T01:59:32.465Z,96.46
2022-09-26T02:04:14.284Z,97.08
2022-09-26T02:05:15.259Z,96.87
2022-09-26T02:06:15.238Z,97.17
2022-09-26T02:07:15.228Z,97.38
2022-09-26T02:08:15.215Z,97.17
2022-09-26T02:09:15.286Z,96.87
2022-09-26T02:10:15.192Z,96.56
2022-09-26T02:11:15.179Z,96.46
2022-09-26T02:12:15.194Z,96.46
2022-09-26T02:13:15.146Z,96.46
2022-09-26T02:14:15.145Z,96.36
2022-09-26T02:15:15.118Z,96.56
2022-09-26T02:16:15.184Z,96.46
2022-09-26T02:17:15.126Z,96.36
2022-09-26T02:18:15.083Z,96.36
2022-09-26T02:19:15.206Z,96.46
2022-09-26T02:20:15.064Z,96.77
2022-09-26T02:21:15.055Z,96.87
2022-09-26T02:22:15.051Z,97.08
2022-09-26T02:23:15.033Z,97.08
2022-09-26T02:24:14.998Z,96.97
2022-09-26T02:25:14.979Z,97.08
2022-09-26T02:26:14.975Z,96.97
2022-09-26T02:27:14.980Z,96.97
2022-09-26T02:28:14.976Z,97.08
2022-09-26T02:29:15.154Z,96.77
2022-09-26T02:30:14.928Z,96.56
2022-09-26T02:31:14.903Z,96.46
2022-09-26T02:32:15.000Z,96.46
2022-09-26T02:33:14.895Z,96.36
2022-09-26T02:34:14.870Z,96.46
2022-09-26T02:35:14.857Z,96.46
2022-09-26T02:36:14.842Z,96.46
2022-09-26T02:37:14.879Z,96.46
2022-09-26T02:38:14.822Z,96.46
2022-09-26T02:39:15.011Z,96.56
2022-09-26T02:40:14.845Z,96.77
2022-09-26T02:41:14.778Z,96.67
2022-09-26T02:42:14.753Z,96.67
2022-09-26T02:43:14.756Z,96.67
2022-09-26T02:44:14.785Z,96.77
2022-09-26T02:45:14.738Z,96.87
2022-09-26T02:46:14.834Z,96.97
2022-09-26T02:47:14.705Z,97.17
2022-09-26T02:48:14.685Z,97.38
2022-09-26T02:49:14.874Z,97.42
2022-09-26T02:50:14.661Z,97.42
2022-09-26T02:51:14.643Z,97.53
2022-09-26T02:52:14.632Z,97.58
2022-09-26T02:53:14.652Z,97.79
2022-09-26T02:54:14.598Z,97.69
2022-09-26T02:55:14.616Z,97.49
2022-09-26T02:56:14.618Z,97.38
2022-09-26T02:57:14.558Z,97.49
2022-09-26T02:58:14.550Z,97.49
2022-09-26T02:59:14.629Z,97.49
2022-09-26T03:00:14.523Z,97.58
2022-09-26T03:01:14.586Z,97.49
2022-09-26T03:02:14.497Z,97.49
2022-09-26T03:03:14.517Z,97.58
2022-09-26T03:04:14.575Z,97.53
2022-09-26T03:05:14.454Z,97.38
2022-09-26T03:06:14.467Z,97.38
2022-09-26T03:07:14.424Z,97.28
2022-09-26T03:08:14.414Z,97.28
2022-09-26T03:09:14.524Z,97.58
2022-09-26T03:10:14.383Z,97.69
2022-09-26T03:11:14.400Z,97.58
2022-09-26T03:12:14.355Z,97.49
2022-09-26T03:13:14.345Z,97.38
2022-09-26T03:14:14.342Z,97.17
2022-09-26T03:15:14.307Z,97.08
2022-09-26T03:16:14.360Z,96.87
2022-09-26T03:17:14.296Z,96.87
2022-09-26T03:18:14.275Z,97.08
2022-09-26T03:19:14.531Z,97.38
2022-09-26T03:20:14.277Z,97.58
2022-09-26T03:21:14.272Z,97.89
2022-09-26T03:22:14.226Z,97.69
2022-09-26T03:23:14.219Z,97.49
2022-09-26T03:24:14.201Z,97.38
2022-09-26T03:25:14.185Z,97.38
2022-09-26T03:26:14.203Z,97.38
2022-09-26T03:27:14.147Z,97.38
2022-09-26T03:28:14.150Z,97.28
2022-09-26T03:29:14.309Z,97.38
2022-09-26T03:30:14.113Z,97.38
2022-09-26T03:31:14.175Z,97.49
2022-09-26T03:32:14.190Z,97.49
2022-09-26T03:33:14.078Z,97.58
2022-09-26T03:34:14.064Z,97.49
2022-09-26T03:35:14.067Z,97.28
2022-09-26T03:36:14.063Z,97.38
2022-09-26T03:37:14.022Z,97.79
2022-09-26T03:38:14.603Z,97.79
2022-09-26T03:39:14.206Z,97.79
2022-09-26T03:40:14.033Z,97.69
2022-09-26T03:41:13.965Z,97.49
2022-09-26T03:42:13.960Z,97.38
2022-09-26T03:43:13.975Z,97.49
2022-09-26T03:44:13.952Z,97.69
2022-09-26T03:45:13.936Z,97.94
2022-09-26T03:46:13.929Z,98.14
2022-09-26T03:47:13.885Z,98.45
2022-09-26T03:48:13.887Z,98.75
2022-09-26T03:49:14.004Z,99.01
2022-09-26T03:50:13.860Z,99.31
2022-09-26T03:51:13.862Z,99.41
2022-09-26T03:52:13.824Z,99.41
2022-09-26T03:53:13.809Z,99.41
2022-09-26T03:54:13.838Z,99.31
2022-09-26T03:55:13.794Z,99.31
2022-09-26T03:56:13.799Z,99.21
2022-09-26T03:57:13.770Z,99.21
2022-09-26T03:58:13.750Z,99.21
2022-09-26T03:59:13.859Z,99.27
2022-09-26T04:00:13.744Z,99.27
2022-09-26T04:01:13.810Z,99.27
2022-09-26T04:02:13.769Z,99.16
2022-09-26T04:03:13.680Z,99.06
2022-09-26T04:04:13.670Z,98.86
2022-09-26T04:05:13.679Z,98.75
2022-09-26T04:06:13.634Z,98.55
2022-09-26T04:07:13.620Z,98.45
2022-09-26T04:08:13.609Z,98.35
2022-09-26T04:09:17.045Z,98.24
2022-09-26T04:10:13.613Z,98.10
2022-09-26T04:11:13.568Z,97.99
2022-09-26T04:12:13.553Z,97.79
2022-09-26T04:13:33.745Z,97.58
2022-09-26T04:14:13.535Z,97.38
2022-09-26T04:15:13.543Z,97.49
2022-09-26T04:16:13.558Z,97.38
2022-09-26T04:17:13.527Z,97.38
2022-09-26T04:18:13.478Z,97.38
2022-09-26T04:19:13.590Z,97.49
2022-09-26T04:20:13.475Z,97.58
2022-09-26T04:21:13.433Z,97.83
2022-09-26T04:22:13.427Z,97.83
2022-09-26T04:23:13.403Z,97.83
2022-09-26T04:24:13.393Z,97.63
2022-09-26T04:25:13.404Z,97.58
2022-09-26T04:26:14.864Z,97.63
2022-09-26T04:27:13.354Z,97.83
2022-09-26T04:28:13.353Z,97.83
2022-09-26T04:29:13.350Z,98.14
2022-09-26T04:30:13.318Z,98.30
2022-09-26T04:31:13.369Z,98.30
2022-09-26T04:32:13.291Z,98.30
2022-09-26T04:33:13.271Z,98.30
2022-09-26T04:34:13.287Z,98.20
2022-09-26T04:35:13.255Z,98.10
2022-09-26T04:36:13.237Z,97.99
2022-09-26T04:37:13.225Z,97.79
2022-09-26T04:38:13.240Z,97.79
2022-09-26T04:39:13.373Z,97.58
2022-09-26T04:40:13.229Z,97.79
2022-09-26T04:41:13.192Z,97.79
2022-09-26T04:42:13.146Z,97.69
2022-09-26T04:43:13.144Z,97.38
2022-09-26T04:44:13.158Z,97.17
2022-09-26T04:45:13.109Z,97.33
2022-09-26T04:46:15.885Z,97.12
2022-09-26T04:47:13.092Z,97.33
2022-09-26T04:48:13.084Z,97.42
2022-09-26T04:49:13.091Z,97.42
2022-09-26T04:50:13.044Z,97.42
2022-09-26T04:51:13.030Z,97.33
2022-09-26T04:52:13.020Z,97.42
2022-09-26T04:53:13.004Z,97.57
2022-09-26T04:54:13.019Z,97.57
2022-09-26T04:55:12.983Z,97.67
2022-09-26T04:56:12.962Z,97.78
2022-09-26T04:57:17.322Z,97.98
2022-09-26T04:58:12.972Z,98.08
2022-09-26T04:59:13.020Z,98.08
2022-09-26T05:00:12.971Z,98.14
2022-09-26T05:01:12.982Z,98.14
2022-09-26T05:02:13.049Z,97.94
2022-09-26T05:03:12.874Z,97.83
2022-09-26T05:04:12.865Z,97.94
2022-09-26T05:05:12.839Z,97.94
2022-09-26T05:06:12.859Z,97.83
2022-09-26T05:07:12.822Z,97.74
2022-09-26T05:08:12.802Z,97.74
2022-09-26T05:09:12.790Z,97.74
2022-09-26T05:10:12.775Z,97.74
2022-09-26T05:11:12.789Z,97.63
2022-09-26T05:12:12.775Z,97.74
2022-09-26T05:13:12.748Z,97.83
2022-09-26T05:14:12.728Z,97.94
2022-09-26T05:15:12.720Z,97.94
2022-09-26T05:16:12.733Z,97.94
2022-09-26T05:17:12.715Z,97.63
2022-09-26T05:18:12.668Z,97.74
2022-09-26T05:19:12.659Z,97.94
2022-09-26T05:20:12.644Z,97.63
2022-09-26T05:21:12.658Z,97.42
2022-09-26T05:22:12.647Z,97.42
2022-09-26T05:23:12.632Z,97.42
2022-09-26T05:24:12.613Z,97.53
2022-09-26T05:25:12.587Z,97.53
2022-09-26T05:26:12.562Z,97.42
2022-09-26T05:27:12.543Z,97.53
2022-09-26T05:28:12.540Z,97.53
2022-09-26T05:29:12.877Z,97.63
2022-09-26T05:30:12.510Z,97.53
2022-09-26T05:31:12.557Z,97.53
2022-09-26T05:32:12.507Z,97.63
2022-09-26T05:33:12.510Z,97.74
2022-09-26T05:34:18.367Z,97.53
2022-09-26T05:35:12.454Z,97.42
2022-09-26T05:36:12.453Z,97.22
2022-09-26T05:37:12.424Z,97.12
2022-09-26T05:38:12.443Z,97.22
2022-09-26T05:39:12.450Z,97.33
2022-09-26T05:40:12.432Z,97.33
2022-09-26T05:41:12.364Z,97.42
2022-09-26T05:42:12.362Z,97.42
2022-09-26T05:43:12.358Z,97.33
2022-09-26T05:44:12.315Z,97.53
2022-09-26T05:45:12.341Z,97.53
2022-09-26T05:46:12.345Z,97.74
2022-09-26T05:47:12.366Z,97.94
2022-09-26T05:48:12.279Z,98.04
2022-09-26T05:49:12.336Z,98.14
2022-09-26T05:50:12.272Z,98.04
2022-09-26T05:51:12.241Z,98.04
2022-09-26T05:52:12.234Z,98.04
2022-09-26T05:53:12.210Z,98.04
2022-09-26T05:54:12.182Z,97.83
2022-09-26T05:55:12.172Z,97.74
2022-09-26T05:56:17.649Z,97.63
2022-09-26T05:57:12.175Z,97.74
2022-09-26T05:58:12.130Z,97.98
2022-09-26T05:59:12.164Z,97.98
2022-09-26T06:00:12.106Z,98.08
2022-09-26T06:01:12.276Z,98.19
2022-09-26T06:02:13.508Z,98.19
2022-09-26T06:03:12.086Z,98.19
2022-09-26T06:04:12.059Z,97.98
2022-09-26T06:05:12.042Z,97.78
2022-09-26T06:06:12.055Z,97.88
2022-09-26T06:07:12.043Z,97.88
2022-09-26T06:08:12.017Z,97.98
2022-09-26T06:09:12.011Z,97.92
2022-09-26T06:10:11.975Z,98.03
2022-09-26T06:11:11.962Z,98.24
2022-09-26T06:12:11.962Z,98.24
2022-09-26T06:13:11.942Z,98.44
2022-09-26T06:14:11.925Z,98.74
2022-09-26T06:15:11.906Z,98.85
2022-09-26T06:16:11.912Z,98.85
2022-09-26T06:17:11.913Z,98.85
2022-09-26T06:18:11.871Z,98.85
2022-09-26T06:19:11.887Z,98.95
2022-09-26T06:20:11.837Z,99.01
2022-09-26T06:21:11.831Z,99.11
2022-09-26T06:22:11.836Z,99.01
2022-09-26T06:23:11.810Z,98.90
2022-09-26T06:24:11.817Z,98.80
2022-09-26T06:25:11.776Z,98.80
2022-09-26T06:26:11.755Z,98.90
2022-09-26T06:27:11.767Z,98.80
2022-09-26T06:28:11.761Z,98.80
2022-09-26T06:29:11.776Z,98.80
2022-09-26T06:30:11.709Z,98.90
2022-09-26T06:31:11.755Z,98.90
2022-09-26T06:32:11.721Z,98.80
2022-09-26T06:33:11.704Z,98.65
2022-09-26T06:34:11.652Z,98.55
2022-09-26T06:35:11.656Z,98.55
2022-09-26T06:36:11.650Z,98.55
2022-09-26T06:37:11.611Z,98.65
2022-09-26T06:38:11.638Z,98.75
2022-09-26T06:39:11.709Z,98.65
2022-09-26T06:40:11.697Z,98.45
2022-09-26T06:41:11.562Z,98.04
2022-09-26T06:42:11.571Z,97.83
2022-09-26T06:43:11.564Z,97.74
2022-09-26T06:44:11.533Z,97.74
2022-09-26T06:45:11.538Z,97.83
2022-09-26T06:46:11.486Z,97.94
2022-09-26T06:47:11.557Z,97.94
2022-09-26T06:48:11.462Z,98.14
2022-09-26T06:49:11.465Z,98.24
2022-09-26T06:50:11.467Z,98.14
2022-09-26T06:51:11.429Z,98.04
2022-09-26T06:52:11.443Z,97.94
2022-09-26T06:53:11.408Z,97.83
2022-09-26T06:54:11.412Z,97.94
2022-09-26T06:55:11.376Z,97.94
2022-09-26T06:56:11.359Z,97.74
2022-09-26T06:57:14.913Z,97.42
2022-09-26T06:58:11.332Z,97.17
2022-09-26T06:59:11.326Z,97.02
2022-09-26T07:00:11.305Z,96.87
2022-09-26T07:01:11.527Z,96.71
2022-09-26T07:02:11.450Z,96.71
2022-09-26T07:03:11.287Z,96.51
2022-09-26T07:04:11.252Z,96.41
2022-09-26T07:05:11.253Z,96.71
2022-09-26T07:06:11.232Z,97.02
2022-09-26T07:07:11.243Z,97.12
2022-09-26T07:08:11.200Z,97.33
2022-09-26T07:09:12.437Z,97.53
2022-09-26T07:10:11.167Z,97.63
2022-09-26T07:11:32.821Z,97.63
2022-09-26T07:12:15.498Z,97.53
2022-09-26T07:13:11.147Z,97.42
2022-09-26T07:14:11.124Z,97.33
2022-09-26T07:15:11.122Z,96.61
2022-09-26T07:16:11.159Z,96.20
2022-09-26T07:17:11.092Z,96.20
2022-09-26T07:18:11.080Z,96.41
2022-09-26T07:19:11.204Z,96.61
2022-09-26T07:20:11.034Z,96.92
2022-09-26T07:21:11.033Z,96.92
2022-09-26T07:22:11.011Z,96.81
2022-09-26T07:23:11.020Z,97.02
2022-09-26T07:24:10.987Z,97.22
2022-09-26T07:25:10.985Z,97.33
2022-09-26T07:26:10.963Z,97.38
2022-09-26T07:27:10.969Z,97.49
2022-09-26T07:28:10.944Z,97.69
2022-09-26T07:29:10.913Z,97.79
2022-09-26T07:30:10.903Z,97.79
2022-09-26T07:31:10.943Z,97.79
2022-09-26T07:32:10.868Z,97.69
2022-09-26T07:33:10.866Z,97.58
2022-09-26T07:34:14.590Z,97.58
2022-09-26T07:35:10.847Z,97.49
2022-09-26T07:36:10.823Z,97.58
2022-09-26T07:37:10.808Z,97.58
2022-09-26T07:38:10.824Z,97.58
2022-09-26T07:39:10.784Z,97.58
2022-09-26T07:40:10.843Z,97.69
2022-09-26T07:41:10.764Z,97.79
2022-09-26T07:42:10.763Z,97.79
2022-09-26T07:43:19.795Z,97.74
2022-09-26T07:45:27.881Z,97.63
2022-09-26T07:46:10.812Z,97.63
2022-09-26T07:47:10.673Z,97.83
2022-09-26T07:48:10.660Z,97.94
2022-09-26T07:49:10.704Z,97.74
2022-09-26T07:50:10.630Z,97.94
2022-09-26T07:51:10.622Z,97.63
2022-09-26T07:52:10.624Z,98.04
2022-09-26T07:53:10.592Z,98.14
2022-09-26T07:54:10.583Z,98.45
2022-09-26T07:55:10.567Z,98.65
2022-09-26T07:56:10.596Z,98.65
2022-09-26T07:57:10.575Z,98.55
2022-09-26T07:58:10.527Z,98.45
2022-09-26T07:59:10.525Z,98.45
2022-09-26T08:00:10.500Z,98.24
2022-09-26T08:01:10.504Z,98.24
2022-09-26T08:02:10.689Z,98.35
2022-09-26T08:03:10.541Z,98.24
2022-09-26T08:04:10.450Z,97.94
2022-09-26T08:05:10.438Z,98.04
2022-09-26T08:06:10.463Z,98.20
2022-09-26T08:07:10.419Z,98.40
2022-09-26T08:08:10.388Z,98.20
2022-09-26T08:09:10.385Z,97.69
2022-09-26T08:10:10.361Z,97.08
2022-09-26T08:11:10.389Z,96.97
2022-09-26T08:12:10.335Z,96.87
2022-09-26T08:13:10.327Z,97.38
2022-09-26T08:14:10.316Z,97.58
2022-09-26T08:15:10.320Z,97.58
2022-09-26T08:16:10.333Z,97.49
2022-09-26T08:17:14.052Z,97.28
2022-09-26T08:18:10.262Z,97.28
2022-09-26T08:19:10.271Z,97.38
2022-09-26T08:20:10.233Z,97.17
2022-09-26T08:21:10.264Z,97.17
2022-09-26T08:22:10.202Z,97.58
2022-09-26T08:23:10.231Z,97.64
2022-09-26T08:24:10.248Z,97.54
2022-09-26T08:25:10.168Z,97.44
2022-09-26T08:26:10.182Z,97.64
2022-09-26T08:27:10.139Z,97.64
2022-09-26T08:28:10.125Z,97.58
2022-09-26T08:29:10.136Z,97.58
2022-09-26T08:30:10.100Z,97.64
2022-09-26T08:31:10.172Z,97.85
2022-09-26T08:32:10.068Z,97.95
2022-09-26T08:33:10.062Z,97.95
2022-09-26T08:34:10.077Z,98.05
2022-09-26T08:35:10.061Z,98.05
2022-09-26T08:36:10.029Z,98.05
2022-09-26T08:37:10.023Z,98.05
2022-09-26T08:38:09.988Z,98.05
2022-09-26T08:39:10.083Z,97.95
2022-09-26T08:40:09.980Z,98.05
2022-09-26T08:41:09.952Z,98.05
2022-09-26T08:42:09.937Z,97.85
2022-09-26T08:43:09.955Z,98.15
2022-09-26T08:44:09.970Z,98.05
2022-09-26T08:45:09.904Z,97.64
2022-09-26T08:46:09.993Z,97.64
2022-09-26T08:47:09.875Z,97.13
2022-09-26T08:48:09.854Z,96.72
2022-09-26T08:49:09.851Z,96.37
2022-09-26T08:50:09.885Z,96.11
2022-09-26T08:51:09.813Z,95.70
2022-09-26T08:52:09.839Z,95.80
2022-09-26T08:53:09.784Z,96.21
2022-09-26T08:54:09.902Z,96.62
2022-09-26T08:55:09.768Z,96.72
2022-09-26T08:56:09.774Z,96.62
2022-09-26T08:57:09.775Z,96.51
2022-09-26T08:58:09.752Z,96.51
2022-09-26T08:59:09.714Z,96.62
2022-09-26T09:00:09.730Z,96.42
2022-09-26T09:01:09.685Z,96.42
2022-09-26T09:02:09.835Z,96.88
2022-09-26T09:03:09.714Z,96.58
2022-09-26T09:04:09.706Z,96.17
2022-09-26T09:05:09.657Z,95.96
2022-09-26T09:06:09.637Z,96.58
2022-09-26T09:07:09.630Z,97.08
2022-09-26T09:08:09.586Z,96.94
2022-09-26T09:09:09.569Z,96.02
2022-09-26T09:10:09.586Z,95.81
2022-09-26T09:11:09.539Z,95.10
2022-09-26T09:12:09.533Z,95.10
2022-09-26T09:13:09.514Z,93.93
2022-09-26T09:14:09.590Z,94.65
2022-09-26T09:15:24.774Z,96.34
2022-09-26T09:16:09.595Z,97.52
2022-09-26T09:17:09.486Z,97.12
2022-09-26T09:18:13.386Z,95.75
2022-09-26T09:19:09.445Z,93.37
2022-09-26T09:20:09.422Z,91.09
2022-09-26T09:21:09.418Z,89.76
2022-09-26T09:22:09.403Z,90.74
2022-09-26T09:23:09.400Z,87.45
2022-09-26T09:24:09.500Z,86.08
2022-09-26T09:25:09.353Z,84.26
2022-09-26T09:28:09.350Z,83.26
2022-09-26T09:29:10.719Z,81.04
2022-09-26T09:30:17.469Z,81.71
2022-09-26T09:31:09.343Z,80.19
2022-09-26T09:32:09.287Z,81.97
2022-09-26T09:33:09.281Z,79.71
2022-09-26T09:34:09.378Z,76.93
2022-09-26T09:35:09.258Z,80.24
2022-09-26T09:36:09.246Z,71.73
2022-09-26T09:37:09.197Z,74.77
2022-09-26T09:38:09.222Z,75.18
2022-09-26T09:39:09.168Z,74.10
2022-09-26T09:40:09.160Z,72.58
2022-09-26T09:41:09.167Z,74.30
2022-09-26T09:42:09.132Z,75.72
2022-09-26T09:43:09.119Z,78.15
2022-09-26T09:44:09.180Z,75.42
2022-09-26T09:45:09.110Z,73.73
2022-09-26T09:46:09.138Z,71.53
2022-09-26T09:47:09.062Z,72.24
2022-09-26T09:48:09.056Z,73.70
2022-09-26T09:49:09.062Z,73.29
2022-09-26T09:50:09.030Z,73.60
2022-09-26T09:51:09.034Z,75.93
2022-09-26T09:52:09.026Z,74.30
2022-09-26T09:53:08.986Z,72.78
2022-09-26T09:54:09.061Z,73.80
2022-09-26T09:55:08.950Z,73.39
2022-09-26T09:56:09.016Z,77.14
2022-09-26T09:57:08.937Z,75.59
2022-09-26T09:58:08.914Z,71.03
2022-09-26T09:59:08.902Z,73.16
2022-09-26T10:00:08.938Z,70.42
2022-09-26T10:01:08.873Z,70.32
2022-09-26T10:02:08.863Z,71.80
2022-09-26T10:03:09.005Z,70.89
2022-09-26T10:04:08.877Z,70.59
2022-09-26T10:05:08.819Z,70.39
2022-09-26T10:06:13.478Z,69.37
2022-09-26T10:07:08.854Z,71.80
2022-09-26T10:08:08.780Z,68.23
2022-09-26T10:09:38.164Z,66.50
2022-09-26T10:10:08.762Z,65.59
2022-09-26T10:11:08.735Z,67.59
2022-09-26T10:12:08.725Z,67.59
2022-09-26T10:13:08.744Z,66.44
2022-09-26T10:14:08.700Z,66.41
2022-09-26T10:15:08.683Z,66.89
2022-09-26T10:16:08.711Z,67.09
2022-09-26T10:17:08.683Z,68.44
2022-09-26T10:18:26.119Z,64.90
2022-09-26T10:19:08.635Z,64.98
2022-09-26T10:20:08.651Z,65.48
2022-09-26T10:21:08.617Z,66.19
2022-09-26T10:22:08.626Z,65.58
2022-09-26T10:23:08.579Z,65.28
2022-09-26T10:24:08.679Z,67.27
2022-09-26T10:25:08.650Z,64.34
2022-09-26T10:26:08.551Z,65.85
2022-09-26T10:27:08.557Z,67.27
2022-09-26T10:28:08.523Z,69.35
2022-09-26T10:29:08.503Z,69.32
2022-09-26T10:30:08.493Z,67.84
2022-09-26T10:31:08.620Z,63.99
2022-09-26T10:32:08.488Z,60.97
2022-09-26T10:33:08.469Z,59.76
2022-09-26T10:34:08.585Z,61.00
2022-09-26T10:35:08.429Z,62.01
2022-09-26T10:36:08.410Z,61.17
2022-09-26T10:37:08.415Z,60.87
2022-09-26T10:38:08.383Z,59.16
2022-09-26T10:39:08.388Z,58.73
2022-09-26T10:40:08.363Z,60.00
2022-09-26T10:41:08.521Z,58.90
2022-09-26T10:42:08.366Z,60.58
2022-09-26T10:43:08.321Z,60.85
2022-09-26T10:44:08.309Z,61.15
2022-09-26T10:45:08.286Z,60.02
2022-09-26T10:46:08.375Z,61.86
2022-09-26T10:47:08.266Z,61.05
2022-09-26T10:48:08.243Z,62.59
2022-09-26T10:49:08.252Z,63.32
2022-09-26T10:50:08.222Z,63.12
2022-09-26T10:51:08.236Z,64.06
2022-09-26T10:52:08.346Z,64.66
2022-09-26T10:53:08.186Z,66.00
2022-09-26T10:54:08.186Z,64.86
2022-09-26T10:55:08.160Z,65.13
2022-09-26T10:56:08.170Z,66.14
2022-09-26T10:57:08.129Z,65.67
2022-09-26T10:58:13.534Z,64.96
2022-09-26T10:59:08.114Z,66.07
2022-09-26T11:00:08.093Z,66.80
2022-09-26T11:01:08.100Z,64.29
2022-09-26T11:02:08.165Z,63.21
2022-09-26T11:03:08.129Z,62.30
2022-09-26T11:04:08.230Z,63.85
2022-09-26T11:05:08.040Z,64.75
2022-09-26T11:06:08.014Z,65.36
2022-09-26T11:07:08.002Z,65.09
2022-09-26T11:08:08.007Z,65.86
2022-09-26T11:09:07.974Z,65.22
2022-09-26T11:10:07.983Z,65.86
2022-09-26T11:11:07.945Z,66.36
2022-09-26T11:12:07.935Z,65.46
2022-09-26T11:13:07.938Z,65.09
2022-09-26T11:14:07.906Z,64.69
2022-09-26T11:15:07.923Z,65.99
2022-09-26T11:16:07.944Z,65.99
2022-09-26T11:17:07.867Z,66.63
2022-09-26T11:18:07.857Z,65.62
2022-09-26T11:19:07.875Z,64.92
2022-09-26T11:20:07.942Z,66.05
2022-09-26T11:21:23.118Z,65.75
2022-09-26T11:22:08.488Z,65.75
2022-09-26T11:23:07.784Z,65.95
2022-09-26T11:24:28.772Z,67.47
2022-09-26T11:25:07.772Z,66.49
2022-09-26T11:26:28.790Z,66.99
2022-09-26T11:28:16.432Z,67.40
2022-09-26T11:29:38.394Z,66.79
2022-09-26T11:31:26.165Z,67.23
2022-09-26T11:33:36.103Z,67.13
2022-09-26T11:34:58.069Z,67.83
2022-09-26T11:35:57.707Z,66.82
2022-09-26T11:36:36.684Z,68.84
2022-09-26T11:37:36.686Z,68.77
2022-09-26T11:38:36.648Z,69.18
2022-09-26T11:39:36.641Z,68.17
2022-09-26T11:40:36.686Z,69.18
2022-09-26T11:41:36.808Z,67.97
2022-09-26T11:42:36.643Z,68.37
2022-09-26T11:43:36.581Z,68.67
2022-09-26T11:44:36.592Z,68.80
2022-09-26T11:45:40.862Z,68.60
2022-09-26T11:46:36.654Z,68.80
2022-09-26T11:47:36.551Z,68.40
2022-09-26T11:48:36.544Z,68.60
2022-09-26T11:49:36.506Z,69.24
2022-09-26T11:50:36.492Z,68.43
2022-09-26T11:51:36.491Z,69.14
2022-09-26T11:52:36.486Z,69.95
2022-09-26T11:53:36.452Z,70.86
2022-09-26T11:54:36.446Z,70.36
2022-09-26T11:55:36.447Z,69.85
2022-09-26T11:56:36.425Z,69.98
2022-09-26T11:57:36.421Z,71.09
2022-09-26T11:58:36.381Z,69.68
2022-09-26T11:59:36.378Z,70.39
2022-09-26T12:00:36.388Z,69.98
2022-09-26T12:01:36.346Z,69.27
2022-09-26T12:02:36.422Z,71.00
2022-09-26T12:03:36.513Z,72.41
2022-09-26T12:04:36.304Z,72.11
2022-09-26T12:05:36.306Z,71.84
2022-09-26T12:06:36.283Z,71.94
2022-09-26T12:07:36.253Z,71.03
2022-09-26T12:08:36.265Z,71.44
2022-09-26T12:09:36.262Z,70.29
2022-09-26T12:10:36.220Z,72.21
2022-09-26T12:11:36.240Z,72.92
2022-09-26T12:12:40.441Z,72.41
2022-09-26T12:13:36.185Z,71.40
2022-09-26T12:14:36.242Z,71.06
2022-09-26T12:15:36.211Z,71.26
2022-09-26T12:16:36.168Z,69.95
2022-09-26T12:17:36.198Z,69.24
2022-09-26T12:18:36.140Z,70.25
2022-09-26T12:19:36.121Z,69.85
2022-09-26T12:20:36.086Z,71.26
2022-09-26T12:21:36.097Z,69.65
2022-09-26T12:22:36.105Z,70.25
2022-09-26T12:23:36.076Z,69.55
2022-09-26T12:24:36.031Z,69.55
2022-09-26T12:25:36.021Z,69.38
2022-09-26T12:26:36.129Z,69.07
2022-09-26T12:27:36.006Z,69.48
2022-09-26T12:28:36.060Z,69.89
2022-09-26T12:29:35.979Z,71.20
2022-09-26T12:30:35.950Z,68.67
2022-09-26T12:31:35.968Z,67.69
2022-09-26T12:32:35.926Z,67.49
2022-09-26T12:33:35.909Z,67.29
2022-09-26T12:34:35.920Z,67.59
2022-09-26T12:35:35.884Z,68.60
2022-09-26T12:36:35.867Z,68.10
2022-09-26T12:37:35.911Z,68.70
2022-09-26T12:38:35.840Z,69.92
2022-09-26T12:39:35.835Z,68.90
2022-09-26T12:40:35.922Z,70.32
2022-09-26T12:41:35.817Z,71.53
2022-09-26T12:42:35.826Z,71.33
2022-09-26T12:43:35.775Z,73.25
2022-09-26T12:44:35.846Z,69.41
2022-09-26T12:45:35.747Z,68.50
2022-09-26T12:46:35.764Z,69.31
2022-09-26T12:47:35.726Z,71.67
2022-09-26T12:48:35.750Z,69.74
2022-09-26T12:49:35.690Z,68.84
2022-09-26T12:50:35.693Z,72.08
2022-09-26T12:51:35.722Z,73.69
2022-09-26T12:52:35.674Z,75.01
2022-09-26T12:53:35.633Z,73.59
2022-09-26T12:54:35.660Z,71.37
2022-09-26T12:55:35.673Z,70.86
2022-09-26T12:56:36.022Z,73.02
2022-09-26T12:57:35.599Z,71.50
2022-09-26T12:58:35.568Z,71.09
2022-09-26T12:59:38.748Z,71.00
2022-09-26T13:00:35.544Z,71.20
2022-09-26T13:01:35.575Z,73.02
2022-09-26T13:02:35.568Z,73.83